Time;durP1;ratioP1;P1;durP2;ratioP2;P2;SDS_P1;SDS_P2;PMS_P1;PMS_P2;Temp;Humidity;BMP_temperature;BMP_pressure;BME280_temperature;BME280_humidity;BME280_pressure;Samples;Min_cycle;Max_cycle;Signal;HPM_P1;HPM_P2
2022/02/01 09:42:53;;;;;;;33.00;23.15;;;5.30;99.90;;;;;;4758665;22;20098;-86
2022/02/01 09:45:19;;;;;;;34.45;22.75;;;5.30;99.90;;;;;;5087545;28;20029;-86
2022/02/01 09:47:46;;;;;;;35.40;22.83;;;5.30;99.90;;;;;;5077470;28;20043;-88
2022/02/01 09:50:15;;;;;;;33.03;20.98;;;5.40;99.90;;;;;;5074160;28;20406;-86
2022/02/01 09:52:41;;;;;;;31.10;21.35;;;5.40;99.90;;;;;;5053494;28;20034;-87
2022/02/01 09:55:09;;;;;;;31.13;20.23;;;5.40;99.90;;;;;;5064552;28;20048;-87
2022/02/01 09:57:36;;;;;;;30.60;20.80;;;5.40;99.90;;;;;;5085511;28;20044;-86
2022/02/01 10:00:10;;;;;;;26.27;18.95;;;5.50;99.90;;;;;;5071102;28;20025;-87
2022/02/01 10:02:41;;;;;;;29.08;19.30;;;5.50;99.90;;;;;;5057634;28;20040;-88
2022/02/01 10:05:10;;;;;;;24.52;17.75;;;5.50;99.90;;;;;;5060169;28;20032;-87
2022/02/01 10:07:52;;;;;;;23.52;17.17;;;5.50;99.90;;;;;;5061009;28;20064;-88
2022/02/01 10:10:20;;;;;;;22.55;15.80;;;5.60;99.90;;;;;;5059823;28;20032;-87
2022/02/01 10:13:16;;;;;;;20.27;14.63;;;5.60;99.90;;;;;;5076822;28;20100;-88
2022/02/01 10:15:59;;;;;;;19.95;13.73;;;5.70;99.90;;;;;;5058584;28;20211;-87
2022/02/01 10:18:27;;;;;;;18.67;13.23;;;5.70;99.90;;;;;;5075759;28;20043;-89
2022/02/01 10:21:03;;;;;;;20.83;14.07;;;5.70;99.90;;;;;;5071453;28;20035;-88
2022/02/01 10:23:30;;;;;;;19.98;13.52;;;5.80;99.90;;;;;;5062331;28;20029;-87
2022/02/01 10:26:09;;;;;;;19.15;13.30;;;5.80;99.90;;;;;;5058268;28;20028;-87
2022/02/01 10:31:42;;;;;;;19.92;14.02;;;5.90;99.90;;;;;;5068935;28;20025;-87
2022/02/01 10:36:51;;;;;;;18.03;12.27;;;5.90;99.90;;;;;;5058812;28;20037;-87
2022/02/01 10:39:22;;;;;;;18.02;12.20;;;6.00;99.90;;;;;;5040726;28;20190;-85
2022/02/01 10:42:03;;;;;;;19.95;13.35;;;6.00;99.90;;;;;;5037349;28;20045;-87
2022/02/01 10:44:49;;;;;;;17.92;12.38;;;6.00;99.90;;;;;;5051747;28;20083;-88
2022/02/01 10:47:18;;;;;;;19.63;14.05;;;6.10;99.90;;;;;;5040239;28;20082;-87
2022/02/01 10:49:44;;;;;;;17.83;12.60;;;6.10;99.90;;;;;;5040477;28;20029;-87
2022/02/01 10:52:12;;;;;;;16.92;12.13;;;6.20;99.90;;;;;;5057201;28;20021;-85
2022/02/01 10:54:39;;;;;;;18.05;12.82;;;6.20;99.90;;;;;;5023316;28;20033;-87
2022/02/01 10:57:07;;;;;;;17.83;12.27;;;6.20;99.90;;;;;;5039679;28;20025;-87
2022/02/01 10:59:33;;;;;;;18.20;13.00;;;6.30;99.90;;;;;;5039124;28;20028;-86
2022/02/01 11:02:00;;;;;;;17.33;12.32;;;6.30;99.90;;;;;;5038686;28;20044;-86
2022/02/01 11:04:29;;;;;;;16.98;12.57;;;6.30;99.90;;;;;;5055518;28;20033;-85
2022/02/01 11:06:55;;;;;;;18.83;12.13;;;6.30;99.90;;;;;;5042523;28;20117;-85
2022/02/01 11:09:25;;;;;;;17.42;12.07;;;6.40;99.90;;;;;;5036421;28;20092;-87
2022/02/01 11:11:53;;;;;;;16.67;12.25;;;6.40;99.90;;;;;;5049663;28;20056;-89
2022/02/01 11:14:24;;;;;;;16.77;11.98;;;6.40;99.90;;;;;;5059011;28;20123;-90
2022/02/01 11:17:08;;;;;;;15.98;11.43;;;6.50;99.90;;;;;;5041266;28;20033;-89
2022/02/01 11:20:03;;;;;;;17.88;11.15;;;6.50;99.90;;;;;;5048505;28;20040;-93
2022/02/01 11:22:41;;;;;;;13.88;10.20;;;6.50;99.90;;;;;;5039997;28;20458;-95
2022/02/01 11:25:25;;;;;;;15.25;10.50;;;6.60;99.90;;;;;;5041678;28;20045;-93
2022/02/01 11:28:09;;;;;;;13.88;9.63;;;6.60;99.90;;;;;;5039670;28;20048;-89
2022/02/01 11:30:44;;;;;;;13.40;9.43;;;6.70;99.90;;;;;;5055663;28;20593;-89
2022/02/01 11:33:13;;;;;;;12.63;9.48;;;6.70;99.90;;;;;;5056473;28;20024;-89
2022/02/01 11:35:39;;;;;;;13.48;8.70;;;6.70;99.90;;;;;;5056803;28;20029;-89
2022/02/01 11:38:17;;;;;;;10.60;8.15;;;6.80;99.90;;;;;;5043020;28;20510;-92
2022/02/01 11:40:49;;;;;;;13.80;8.98;;;6.80;99.90;;;;;;5035312;28;20032;-92
2022/02/01 11:43:17;;;;;;;9.73;8.30;;;6.90;99.90;;;;;;5046435;28;20486;-90
2022/02/01 11:45:55;;;;;;;12.43;8.10;;;6.90;99.90;;;;;;5049742;28;20035;-90
2022/02/01 11:48:31;;;;;;;11.73;8.48;;;7.00;99.90;;;;;;5041508;28;20582;-87
2022/02/01 11:51:12;;;;;;;11.02;7.65;;;7.00;99.90;;;;;;5045381;28;20044;-89
2022/02/01 11:53:40;;;;;;;11.45;8.20;;;7.10;99.90;;;;;;5045092;28;20128;-89
2022/02/01 11:56:07;;;;;;;10.05;7.05;;;7.10;99.90;;;;;;5038442;28;20052;-88
2022/02/01 11:58:36;;;;;;;10.10;7.95;;;7.20;99.90;;;;;;5036638;28;20043;-89
2022/02/01 12:01:06;;;;;;;11.40;8.48;;;7.20;99.90;;;;;;5038573;28;20028;-88
2022/02/01 12:03:36;;;;;;;10.50;8.50;;;7.30;99.90;;;;;;5039326;28;20041;-90
2022/02/01 12:06:10;;;;;;;12.15;8.32;;;7.30;99.90;;;;;;5038970;28;20035;-89
2022/02/01 12:08:38;;;;;;;;;;;7.30;99.90;;;;;;5038555;28;20060;-89
2022/02/01 12:11:07;;;;;;;11.70;8.13;;;7.30;99.90;;;;;;5037609;28;19919;-89
2022/02/01 12:13:35;;;;;;;13.55;9.70;;;7.40;99.90;;;;;;5038488;28;20040;-89
2022/02/01 12:16:07;;;;;;;12.98;9.75;;;7.40;99.90;;;;;;5038296;28;20140;-89
2022/02/01 12:18:59;;;;;;;14.50;10.27;;;7.40;99.90;;;;;;5040642;28;20041;-89
2022/02/01 12:21:43;;;;;;;13.82;11.02;;;7.50;99.90;;;;;;5046439;28;20033;-90
2022/02/01 12:24:09;;;;;;;16.20;11.48;;;7.50;99.90;;;;;;5039179;28;20509;-89
2022/02/01 12:26:38;;;;;;;17.90;13.02;;;7.50;99.90;;;;;;5039568;28;20116;-90
2022/02/01 12:29:09;;;;;;;15.75;11.98;;;7.60;99.90;;;;;;5039568;28;20101;-89
2022/02/01 12:31:38;;;;;;;17.05;11.70;;;7.60;99.90;;;;;;5038012;28;20031;-88
2022/02/01 12:34:07;;;;;;;23.10;14.20;;;7.60;99.90;;;;;;5046514;28;20040;-89
2022/02/01 12:36:37;;;;;;;22.33;13.93;;;7.70;99.90;;;;;;5058938;28;20695;-90
2022/02/01 12:39:05;;;;;;;21.15;12.48;;;7.70;99.90;;;;;;5049504;28;20033;-89
2022/02/01 12:41:41;;;;;;;26.38;13.52;;;7.80;99.90;;;;;;5039652;28;20041;-89
2022/02/01 12:46:47;;;;;;;22.13;12.27;;;7.80;99.90;;;;;;5071984;28;20497;-90
2022/02/01 12:49:15;;;;;;;23.85;11.45;;;7.90;99.90;;;;;;5039219;28;20037;-88
2022/02/01 12:51:44;;;;;;;24.35;11.32;;;7.90;99.90;;;;;;5067146;28;20040;-89
2022/02/01 12:54:33;;;;;;;16.75;9.57;;;7.90;99.90;;;;;;5053391;28;20036;-89
2022/02/01 12:57:07;;;;;;;25.75;10.32;;;7.90;99.90;;;;;;5037890;28;20025;-89
2022/02/01 12:59:56;;;;;;;26.83;9.70;;;7.90;99.90;;;;;;5048099;28;20040;-89
2022/02/01 13:02:26;;;;;;;25.13;10.35;;;8.00;99.90;;;;;;5055108;28;20044;-89
2022/02/01 13:04:57;;;;;;;16.80;9.07;;;8.00;99.90;;;;;;5039119;28;20037;-88
2022/02/01 13:16:18;;;;;;;17.25;7.97;;;8.00;99.90;;;;;;5067904;28;20090;-89
2022/02/01 13:21:17;;;;;;;22.45;8.35;;;8.10;99.90;;;;;;5070162;28;20099;-89
2022/02/01 13:23:57;;;;;;;20.13;8.45;;;8.10;99.90;;;;;;5165267;22;20055;-89
2022/02/01 13:26:31;;;;;;;20.25;8.05;;;8.20;99.90;;;;;;5074203;28;20036;-90
2022/02/01 13:29:14;;;;;;;17.40;7.25;;;8.20;99.90;;;;;;5067199;28;20128;-89
2022/02/01 13:31:51;;;;;;;18.63;7.70;;;8.30;99.90;;;;;;5084919;28;20028;-89
2022/02/01 13:34:27;;;;;;;16.77;7.32;;;8.30;99.90;;;;;;5091404;28;20756;-89
2022/02/01 13:36:56;;;;;;;16.45;6.95;;;8.30;99.90;;;;;;5091754;28;20032;-88
2022/02/01 13:39:33;;;;;;;15.90;7.13;;;8.40;99.90;;;;;;5089767;28;20036;-91
2022/02/01 13:42:02;;;;;;;17.50;6.40;;;8.40;99.90;;;;;;5090482;28;20024;-91
2022/02/01 13:44:31;;;;;;;14.52;6.57;;;8.40;99.90;;;;;;5077263;28;20042;-90
2022/02/01 13:47:02;;;;;;;18.02;6.63;;;8.40;99.90;;;;;;5080664;28;20024;-89
2022/02/01 13:49:27;;;;;;;13.00;6.13;;;8.40;99.90;;;;;;5082708;28;20501;-91
2022/02/01 13:51:54;;;;;;;17.42;6.03;;;8.40;99.90;;;;;;5084453;28;20130;-90
2022/02/01 13:54:20;;;;;;;14.23;6.57;;;8.40;99.90;;;;;;5075510;28;20044;-89
2022/02/01 13:56:49;;;;;;;15.98;6.25;;;8.40;99.90;;;;;;5077437;28;20024;-87
2022/02/01 13:59:23;;;;;;;14.68;5.80;;;8.40;99.90;;;;;;5087786;28;20453;-88
2022/02/01 14:02:04;;;;;;;12.18;5.57;;;8.40;99.90;;;;;;5086039;28;20024;-88
2022/02/01 14:04:41;;;;;;;12.77;5.72;;;8.40;99.90;;;;;;5090543;28;20229;-85
2022/02/01 14:07:16;;;;;;;16.05;6.22;;;8.40;99.90;;;;;;5089613;28;20031;-87
2022/02/01 14:35:38;;;;;;;14.38;6.38;;;8.40;99.90;;;;;;5096115;28;20028;-87
2022/02/01 14:38:22;;;;;;;12.98;5.30;;;8.40;99.90;;;;;;5096055;28;20163;-88
2022/02/01 14:43:46;;;;;;;15.10;5.40;;;8.40;99.90;;;;;;5111244;28;20051;-90
2022/02/01 14:46:12;;;;;;;15.75;6.05;;;8.40;99.90;;;;;;5093462;28;20087;-88
2022/02/01 14:48:38;;;;;;;15.00;4.85;;;8.30;99.90;;;;;;5076335;28;20024;-89
2022/02/01 14:51:05;;;;;;;14.85;4.68;;;8.40;99.90;;;;;;5096158;28;20117;-88
2022/02/01 14:53:32;;;;;;;13.45;4.50;;;8.40;99.90;;;;;;5076862;28;20037;-88
2022/02/01 14:56:19;;;;;;;10.98;3.75;;;8.40;99.90;;;;;;5093126;28;20032;-88
2022/02/01 15:15:07;;;;;;;19.48;5.65;;;8.40;99.90;;;;;;5076133;28;20032;-88
2022/02/01 15:17:33;;;;;;;16.30;4.40;;;8.40;99.90;;;;;;5102118;28;20040;-88
2022/02/01 15:19:58;;;;;;;16.13;4.05;;;8.40;99.90;;;;;;5084574;28;20032;-89
2022/02/01 15:22:24;;;;;;;19.25;4.05;;;8.40;99.90;;;;;;5111204;28;20028;-87
2022/02/01 15:24:50;;;;;;;18.60;5.10;;;8.40;99.90;;;;;;5102024;28;20070;-87
2022/02/01 15:27:15;;;;;;;15.18;3.75;;;8.40;99.90;;;;;;5100189;28;20136;-88
2022/02/01 15:29:46;;;;;;;17.20;3.65;;;8.40;99.90;;;;;;5092364;28;20684;-87
2022/02/01 15:32:11;;;;;;;9.50;3.17;;;8.40;99.90;;;;;;5090668;28;20032;-88
2022/02/01 15:34:39;;;;;;;14.60;3.80;;;8.40;99.90;;;;;;5073355;28;20029;-89
2022/02/01 15:37:06;;;;;;;17.33;3.83;;;8.40;99.90;;;;;;5091102;28;20097;-87
2022/02/01 15:58:09;;;;;;;21.13;3.97;;;8.40;99.90;;;;;;5103723;28;20032;-84
2022/02/01 16:00:36;;;;;;;16.88;3.58;;;8.40;99.90;;;;;;5105060;28;20046;-87
2022/02/01 16:03:08;;;;;;;20.75;3.60;;;8.40;99.90;;;;;;5098503;28;20040;-86
2022/02/01 16:05:34;;;;;;;20.35;4.68;;;8.40;99.90;;;;;;5088854;28;20093;-87
2022/02/01 16:08:01;;;;;;;11.20;2.85;;;8.40;99.90;;;;;;5082874;28;20032;-87
2022/02/01 16:10:39;;;;;;;16.17;3.00;;;8.40;99.90;;;;;;5099470;28;20035;-87
2022/02/01 16:13:22;;;;;;;16.55;3.35;;;8.40;99.90;;;;;;5085096;28;20300;-86
2022/02/01 16:15:47;;;;;;;21.45;4.15;;;8.40;99.90;;;;;;5088185;28;20028;-87
2022/02/01 16:18:13;;;;;;;22.35;4.50;;;8.40;99.90;;;;;;5097440;28;20131;-87
2022/02/01 16:20:39;;;;;;;15.68;3.35;;;8.40;99.90;;;;;;5095185;28;20385;-87
2022/02/01 16:23:06;;;;;;;14.48;3.85;;;8.40;99.90;;;;;;5088238;28;20521;-88
2022/02/01 16:25:31;;;;;;;18.13;3.40;;;8.40;99.90;;;;;;5076314;28;20401;-88
2022/02/01 16:27:57;;;;;;;16.80;4.10;;;8.40;99.90;;;;;;5075755;28;20028;-87
2022/02/01 16:30:32;;;;;;;16.85;3.28;;;8.40;99.90;;;;;;5092445;28;20020;-89
2022/02/01 16:32:58;;;;;;;18.88;3.17;;;8.40;99.90;;;;;;5092122;28;20032;-87
2022/02/01 16:35:23;;;;;;;19.42;4.13;;;8.40;99.90;;;;;;5093874;28;20587;-87
2022/02/01 16:37:49;;;;;;;17.23;3.63;;;8.40;99.90;;;;;;5093288;28;20048;-87
2022/02/01 16:40:17;;;;;;;20.20;4.15;;;8.40;99.90;;;;;;5076097;28;20035;-89
2022/02/01 16:42:45;;;;;;;22.42;3.75;;;8.50;99.90;;;;;;5077682;28;20032;-89
2022/02/01 16:45:11;;;;;;;15.98;3.15;;;8.40;99.90;;;;;;5078431;28;20036;-90
2022/02/01 16:47:39;;;;;;;18.92;4.78;;;8.50;99.90;;;;;;5089056;28;20114;-91
2022/02/01 16:50:12;;;;;;;15.25;2.90;;;8.40;99.90;;;;;;5062924;28;20409;-89
2022/02/01 16:52:43;;;;;;;23.10;4.07;;;8.40;99.90;;;;;;5081337;28;20497;-85
2022/02/01 16:55:15;;;;;;;19.95;3.30;;;8.40;99.90;;;;;;5094287;28;20035;-86
2022/02/01 16:57:50;;;;;;;17.17;2.75;;;8.40;99.90;;;;;;5093418;28;20126;-84
2022/02/01 17:00:17;;;;;;;18.60;3.85;;;8.50;99.90;;;;;;5093450;28;20035;-86
2022/02/01 17:02:43;;;;;;;22.42;4.53;;;8.40;99.90;;;;;;5074985;28;20034;-88
2022/02/01 17:05:09;;;;;;;19.17;3.30;;;8.50;99.90;;;;;;5075199;28;20409;-88
2022/02/01 17:07:35;;;;;;;17.67;4.05;;;8.40;99.90;;;;;;5075702;28;20040;-89
2022/02/01 17:10:03;;;;;;;15.48;3.42;;;8.50;99.90;;;;;;5076403;28;20039;-88
2022/02/01 17:12:43;;;;;;;24.65;4.00;;;8.50;99.90;;;;;;5075744;28;20036;-88
2022/02/01 17:23:14;;;;;;;17.20;3.60;;;8.50;99.90;;;;;;5093664;28;20038;-91
2022/02/01 17:25:40;;;;;;;13.98;3.28;;;8.50;99.90;;;;;;5077223;28;20032;-91
2022/02/01 17:28:05;;;;;;;21.67;4.05;;;8.50;99.90;;;;;;5076285;28;20046;-88
2022/02/01 17:30:32;;;;;;;19.52;4.25;;;8.50;99.90;;;;;;5076109;28;20056;-88
2022/02/01 17:32:58;;;;;;;15.35;3.40;;;8.50;99.90;;;;;;5073294;28;20086;-87
2022/02/01 17:35:23;;;;;;;12.20;3.35;;;8.50;99.90;;;;;;5091339;28;20042;-88
2022/02/01 17:37:49;;;;;;;19.73;3.47;;;8.50;99.90;;;;;;5074662;28;20132;-88
2022/02/01 17:40:16;;;;;;;17.05;3.67;;;8.50;99.90;;;;;;5075466;28;20028;-86
2022/02/01 17:42:47;;;;;;;22.27;3.45;;;8.50;99.90;;;;;;5093416;28;20044;-89
2022/02/01 17:45:14;;;;;;;22.42;3.70;;;8.50;99.90;;;;;;5076377;28;20036;-89
2022/02/01 17:47:40;;;;;;;29.83;3.80;;;8.60;99.90;;;;;;5076877;28;20055;-90
2022/02/01 17:50:06;;;;;;;19.38;4.10;;;8.60;99.90;;;;;;5076454;28;20492;-89
2022/02/01 17:52:42;;;;;;;19.27;3.80;;;8.50;99.90;;;;;;5075378;28;20374;-86
2022/02/01 17:55:08;;;;;;;13.38;2.80;;;8.60;99.90;;;;;;5073357;28;20058;-88
2022/02/01 17:57:33;;;;;;;20.27;4.03;;;8.60;99.90;;;;;;5091939;28;20036;-87
2022/02/01 17:59:59;;;;;;;20.67;3.92;;;8.60;99.90;;;;;;5091751;28;20032;-86
2022/02/01 18:02:25;;;;;;;17.08;4.13;;;8.60;99.90;;;;;;5066409;28;20553;-84
2022/02/01 18:04:50;;;;;;;17.27;4.00;;;8.60;99.90;;;;;;5089006;28;20032;-82
2022/02/01 18:07:19;;;;;;;15.77;4.10;;;8.70;99.90;;;;;;5089529;28;20032;-84
2022/02/01 18:09:45;;;;;;;18.70;3.60;;;8.60;99.90;;;;;;5077024;28;20031;-85
2022/02/01 18:12:30;;;;;;;16.98;4.22;;;8.60;99.90;;;;;;5090200;28;20032;-83
2022/02/01 18:14:56;;;;;;;18.60;3.33;;;8.60;99.90;;;;;;5072985;28;20036;-86
2022/02/01 18:17:22;;;;;;;20.77;3.53;;;8.60;99.90;;;;;;5074981;28;20039;-84
2022/02/01 18:19:50;;;;;;;17.95;3.33;;;8.60;99.90;;;;;;5073723;28;20074;-84
2022/02/01 18:22:19;;;;;;;19.92;3.97;;;8.70;99.90;;;;;;5074060;28;20478;-85
2022/02/01 18:24:45;;;;;;;20.80;4.22;;;8.70;99.90;;;;;;5092025;28;20425;-85
2022/02/01 18:27:12;;;;;;;15.45;3.17;;;8.70;99.90;;;;;;5075336;28;20033;-86
2022/02/01 18:29:42;;;;;;;15.90;3.55;;;8.70;99.90;;;;;;5093067;28;20077;-85
2022/02/01 18:32:10;;;;;;;20.52;4.03;;;8.70;99.90;;;;;;5075588;28;20036;-84
2022/02/01 18:34:36;;;;;;;19.23;4.35;;;8.70;99.90;;;;;;5075142;28;20024;-85
2022/02/01 18:37:04;;;;;;;21.10;3.85;;;8.80;99.90;;;;;;5092113;28;20056;-85
2022/02/01 18:39:42;;;;;;;14.90;3.55;;;8.80;99.90;;;;;;5074093;28;20040;-84
2022/02/01 18:42:13;;;;;;;18.60;4.32;;;8.80;99.90;;;;;;5074019;28;20028;-84
2022/02/01 18:44:40;;;;;;;20.23;4.03;;;8.80;99.90;;;;;;5093170;28;20107;-83
2022/02/01 18:47:09;;;;;;;15.75;3.17;;;8.90;99.90;;;;;;5093251;28;20032;-85
2022/02/01 18:52:57;;;;;;;18.05;3.90;;;8.80;99.90;;;;;;5093226;28;20067;-84
2022/02/01 18:57:42;;;;;;;20.90;3.85;;;8.70;99.90;;;;;;5096577;28;20031;-84
2022/02/01 19:05:36;;;;;;;26.10;4.95;;;8.80;99.90;;;;;;5097368;28;20059;-85
2022/02/01 19:13:28;;;;;;;18.67;3.72;;;8.80;99.90;;;;;;5097569;28;20104;-85
2022/02/01 19:15:58;;;;;;;17.00;4.13;;;8.80;99.90;;;;;;5079189;28;20032;-86
2022/02/01 19:18:28;;;;;;;23.67;4.07;;;8.80;99.90;;;;;;5078717;28;20047;-84
2022/02/01 19:20:57;;;;;;;18.75;3.97;;;8.80;99.90;;;;;;5078767;28;20496;-85
2022/02/01 19:23:24;;;;;;;22.15;4.03;;;8.80;99.90;;;;;;5062932;28;20058;-84
2022/02/01 19:25:51;;;;;;;25.08;4.70;;;8.80;99.90;;;;;;5079353;28;20028;-86
2022/02/01 19:28:18;;;;;;;25.55;4.95;;;8.80;99.90;;;;;;5079177;28;20126;-84
2022/02/01 19:30:48;;;;;;;29.38;5.13;;;8.90;99.90;;;;;;5079399;28;20123;-85
2022/02/01 19:33:20;;;;;;;22.63;4.40;;;8.80;99.90;;;;;;5080283;28;20497;-84
2022/02/01 19:35:48;;;;;;;19.90;4.50;;;8.90;99.90;;;;;;5084118;28;20123;-85
2022/02/01 19:38:17;;;;;;;22.10;4.68;;;8.90;99.90;;;;;;5120392;28;20040;-84
2022/02/01 19:40:45;;;;;;;17.85;4.25;;;8.90;99.90;;;;;;5108733;28;20032;-83
2022/02/01 19:43:17;;;;;;;19.35;4.13;;;8.90;99.90;;;;;;5108268;28;20059;-85
2022/02/01 19:45:44;;;;;;;19.83;4.00;;;8.90;99.90;;;;;;5124693;28;20035;-85
2022/02/01 19:48:18;;;;;;;21.85;4.70;;;8.90;99.90;;;;;;5115220;28;20032;-85
2022/02/01 19:50:46;;;;;;;21.08;4.25;;;8.80;99.90;;;;;;5118282;28;20034;-84
2022/02/01 19:53:12;;;;;;;25.98;4.68;;;8.70;99.90;;;;;;5106743;28;20039;-84
2022/02/01 19:55:39;;;;;;;23.50;4.75;;;8.80;99.90;;;;;;5103613;28;20032;-85
2022/02/01 19:58:11;;;;;;;23.65;4.88;;;8.80;99.90;;;;;;5113019;28;20039;-84
2022/02/01 20:00:44;;;;;;;25.65;4.93;;;8.80;99.90;;;;;;5121595;28;20079;-82
2022/02/01 20:03:12;;;;;;;25.30;5.97;;;8.80;99.90;;;;;;5123122;28;20035;-84
2022/02/01 20:05:41;;;;;;;25.38;5.07;;;8.80;99.90;;;;;;5137705;28;20032;-83
2022/02/01 20:08:10;;;;;;;27.98;4.78;;;8.70;99.90;;;;;;5117773;28;20028;-85
2022/02/01 20:10:40;;;;;;;26.77;4.93;;;8.70;99.90;;;;;;5140502;28;20031;-84
2022/02/01 20:13:06;;;;;;;24.20;4.90;;;8.60;99.90;;;;;;5122574;28;20028;-82
2022/02/01 20:15:32;;;;;;;28.35;5.47;;;8.50;99.90;;;;;;5117513;28;20047;-84
2022/02/01 20:17:57;;;;;;;19.27;3.65;;;8.50;99.90;;;;;;5121384;28;20085;-83
2022/02/01 20:20:26;;;;;;;24.92;5.10;;;8.40;99.90;;;;;;5121152;28;20062;-84
2022/02/01 20:22:55;;;;;;;26.20;4.55;;;8.30;99.90;;;;;;5121391;28;20057;-84
2022/02/01 20:25:27;;;;;;;29.80;5.20;;;8.30;99.90;;;;;;5121162;28;20058;-85
2022/02/01 20:27:53;;;;;;;24.98;4.95;;;8.30;99.90;;;;;;5120547;28;20034;-85
2022/02/01 20:30:19;;;;;;;29.02;5.45;;;8.40;99.90;;;;;;5119102;28;20024;-84
2022/02/01 20:32:47;;;;;;;22.88;5.07;;;8.40;99.90;;;;;;5130871;28;20088;-85
2022/02/01 20:35:20;;;;;;;30.27;5.95;;;8.50;99.90;;;;;;5100003;28;20032;-85
2022/02/01 20:37:46;;;;;;;31.65;5.90;;;8.50;99.90;;;;;;5101645;28;20084;-84
2022/02/01 20:40:14;;;;;;;30.50;6.35;;;8.50;99.90;;;;;;5085230;28;20786;-84
2022/02/01 20:42:40;;;;;;;31.52;5.65;;;8.50;99.90;;;;;;5097235;28;20036;-87
2022/02/01 20:45:07;;;;;;;26.85;6.03;;;8.40;99.90;;;;;;5099844;28;20023;-84
2022/02/01 20:47:32;;;;;;;26.08;4.80;;;8.40;99.90;;;;;;5083041;28;20554;-86
2022/02/01 20:49:59;;;;;;;27.60;5.63;;;8.30;99.90;;;;;;5079058;28;20107;-85
2022/02/01 20:52:26;;;;;;;24.95;4.65;;;8.30;99.90;;;;;;5079415;28;20028;-86
2022/02/01 20:54:52;;;;;;;18.20;4.88;;;8.30;99.90;;;;;;5079138;28;20375;-87
2022/02/01 20:57:22;;;;;;;27.30;4.85;;;8.20;99.90;;;;;;5078900;28;20122;-87
2022/02/01 20:59:47;;;;;;;33.80;5.38;;;8.20;99.90;;;;;;5097561;28;20425;-85
2022/02/01 21:02:13;;;;;;;33.15;5.32;;;8.20;99.90;;;;;;5078757;28;20024;-85
2022/02/01 21:04:38;;;;;;;25.75;5.63;;;8.20;99.90;;;;;;5077970;28;20043;-87
2022/02/01 21:07:05;;;;;;;27.48;6.50;;;8.30;99.90;;;;;;5075281;28;20542;-85
2022/02/01 21:09:32;;;;;;;31.27;5.60;;;8.40;99.90;;;;;;5076040;28;20083;-86
2022/02/01 21:11:58;;;;;;;28.17;5.80;;;8.40;99.90;;;;;;5075661;28;20097;-86
2022/02/01 21:14:24;;;;;;;31.38;5.72;;;8.40;99.90;;;;;;5076019;28;20390;-85
2022/02/01 21:16:50;;;;;;;24.58;4.70;;;8.40;99.90;;;;;;5075939;28;20071;-87
2022/02/01 21:19:15;;;;;;;25.77;4.68;;;8.50;99.90;;;;;;5076282;28;20613;-88
2022/02/01 21:21:41;;;;;;;24.45;5.00;;;8.40;99.90;;;;;;5077559;28;20071;-89
2022/02/01 21:24:09;;;;;;;29.85;6.20;;;8.50;99.90;;;;;;5076143;28;20051;-89
2022/02/01 21:26:36;;;;;;;30.23;5.63;;;8.50;99.90;;;;;;5094800;28;20050;-90
2022/02/01 21:29:02;;;;;;;27.60;5.13;;;8.50;99.90;;;;;;5094269;28;20031;-88
2022/02/01 21:31:28;;;;;;;25.35;4.70;;;8.50;99.90;;;;;;5075083;28;20387;-90
2022/02/01 21:33:53;;;;;;;25.58;5.43;;;8.50;99.90;;;;;;5076083;28;20032;-88
2022/02/01 21:36:19;;;;;;;22.60;4.70;;;8.50;99.90;;;;;;5075246;28;20034;-89
2022/02/01 21:38:45;;;;;;;28.50;5.22;;;8.40;99.90;;;;;;5075354;28;20131;-88
2022/02/01 21:41:10;;;;;;;28.98;5.43;;;8.40;99.90;;;;;;5075338;28;20035;-88
2022/02/01 21:43:36;;;;;;;28.23;5.45;;;8.40;99.90;;;;;;5074744;28;20051;-88
2022/02/01 21:46:02;;;;;;;22.13;4.95;;;8.40;99.90;;;;;;5074078;28;20102;-88
2022/02/01 21:48:28;;;;;;;38.85;7.88;;;8.50;99.90;;;;;;5074606;28;20043;-87
2022/02/01 21:50:54;;;;;;;21.38;5.13;;;8.50;99.90;;;;;;5075274;28;20119;-88
2022/02/01 21:53:20;;;;;;;34.25;5.78;;;8.50;99.90;;;;;;5092780;28;20052;-86
2022/02/01 21:55:46;;;;;;;28.33;6.28;;;8.50;99.90;;;;;;5093012;28;20077;-84
2022/02/01 21:58:12;;;;;;;28.70;5.97;;;8.50;99.90;;;;;;5094129;28;20043;-85
2022/02/01 22:00:38;;;;;;;27.75;5.45;;;8.50;99.90;;;;;;5094413;28;20028;-85
2022/02/01 22:03:04;;;;;;;28.92;5.40;;;8.40;99.90;;;;;;5094304;28;20081;-84
2022/02/01 22:05:29;;;;;;;27.92;6.53;;;8.50;99.90;;;;;;5093889;28;20478;-85
2022/02/01 22:07:55;;;;;;;33.33;6.10;;;8.50;99.90;;;;;;5076046;28;20036;-84
2022/02/01 22:10:22;;;;;;;31.65;5.75;;;8.50;99.90;;;;;;5076824;28;20032;-85
2022/02/01 22:12:47;;;;;;;30.58;6.00;;;8.50;99.90;;;;;;5076443;28;20027;-85
2022/02/01 22:15:13;;;;;;;23.85;5.32;;;8.50;99.90;;;;;;5076444;28;20342;-86
2022/02/01 22:17:39;;;;;;;29.75;6.45;;;8.50;99.90;;;;;;5094030;28;20054;-85
2022/02/01 22:20:06;;;;;;;34.63;6.40;;;8.40;99.90;;;;;;5076180;28;20024;-87
2022/02/01 22:22:32;;;;;;;30.85;6.10;;;8.40;99.90;;;;;;5076046;28;20039;-85
2022/02/01 22:24:58;;;;;;;36.42;7.30;;;8.40;99.90;;;;;;5075782;28;20055;-84
2022/02/01 22:27:25;;;;;;;34.63;6.40;;;8.40;99.90;;;;;;5076311;28;20032;-86
2022/02/01 22:29:52;;;;;;;32.42;5.82;;;8.40;99.90;;;;;;5077564;28;20092;-87
2022/02/01 22:32:20;;;;;;;26.52;5.93;;;8.30;99.90;;;;;;5082672;28;20032;-85
2022/02/01 22:34:46;;;;;;;39.78;6.05;;;8.30;99.90;;;;;;5082550;28;20066;-85
2022/02/01 22:37:12;;;;;;;37.95;6.22;;;8.20;99.90;;;;;;5082473;28;20031;-86
2022/02/01 22:39:37;;;;;;;24.70;6.32;;;8.10;99.90;;;;;;5082948;28;20047;-84
2022/02/01 22:42:04;;;;;;;37.58;7.72;;;8.20;99.90;;;;;;5100597;28;20354;-84
2022/02/01 22:44:30;;;;;;;34.80;5.70;;;8.10;99.90;;;;;;5082267;28;20027;-86
2022/02/01 22:46:56;;;;;;;30.95;6.10;;;8.10;99.90;;;;;;5082073;28;20036;-84
2022/02/01 22:49:23;;;;;;;29.48;6.75;;;8.20;99.90;;;;;;5082099;28;20046;-84
2022/02/01 22:51:49;;;;;;;33.97;6.22;;;8.20;99.90;;;;;;5081484;28;20028;-85
2022/02/01 22:54:15;;;;;;;29.95;6.38;;;8.20;99.90;;;;;;5082194;28;20044;-85
2022/02/01 22:56:40;;;;;;;34.78;6.68;;;8.20;99.90;;;;;;5100078;28;20073;-85
2022/02/01 22:59:06;;;;;;;34.53;7.20;;;8.20;99.90;;;;;;5081689;28;20031;-85
2022/02/01 23:01:32;;;;;;;33.60;6.10;;;8.30;99.90;;;;;;5081829;28;20044;-84
2022/02/01 23:03:58;;;;;;;33.88;5.95;;;8.30;99.90;;;;;;5100096;28;20028;-85
2022/02/01 23:06:24;;;;;;;27.13;5.68;;;8.20;99.90;;;;;;5081659;28;20114;-84
2022/02/01 23:14:39;;;;;;;40.35;7.15;;;8.10;99.90;;;;;;5099881;28;20386;-84
2022/02/01 23:19:40;;;;;;;34.13;6.18;;;7.90;99.90;;;;;;5099903;28;20090;-86
2022/02/01 23:22:06;;;;;;;29.38;5.85;;;8.00;99.90;;;;;;5099580;28;20048;-86
2022/02/01 23:24:31;;;;;;;29.27;5.53;;;7.90;99.90;;;;;;5081456;28;20047;-85
2022/02/01 23:26:57;;;;;;;26.23;4.90;;;7.90;99.90;;;;;;5081583;28;20031;-85
2022/02/01 23:29:24;;;;;;;33.42;6.90;;;7.90;99.90;;;;;;5081473;28;20553;-85
2022/02/01 23:50:13;;;;;;;34.78;6.88;;;7.70;99.90;;;;;;5096616;28;20040;-86
2022/02/01 23:52:40;;;;;;;31.77;6.78;;;7.70;99.90;;;;;;5078610;28;20034;-85
2022/02/01 23:55:07;;;;;;;32.13;6.40;;;7.60;99.90;;;;;;5096280;28;20108;-85
2022/02/01 23:57:38;;;;;;;35.25;5.93;;;7.60;99.90;;;;;;5078214;28;20065;-85
